sensor_id;sensor_type;location;lat;lon;timestamp;P1;durP1;ratioP1;P2;durP2;ratioP2
62740;SDS011;48790;55.656;37.702;2023-07-22T00:00:55;7.80;;;2.90;;
62740;SDS011;48790;55.656;37.702;2023-07-22T00:03:21;7.95;;;3.00;;
62740;SDS011;48790;55.656;37.702;2023-07-22T00:05:48;9.23;;;3.00;;
62740;SDS011;48790;55.656;37.702;2023-07-22T00:08:14;6.22;;;2.53;;
62740;SDS011;48790;55.656;37.702;2023-07-22T00:10:40;10.32;;;3.67;;
62740;SDS011;48790;55.656;37.702;2023-07-22T00:13:06;6.90;;;3.08;;
62740;SDS011;48790;55.656;37.702;2023-07-22T00:15:33;6.32;;;3.08;;
62740;SDS011;48790;55.656;37.702;2023-07-22T00:17:58;8.55;;;3.00;;
62740;SDS011;48790;55.656;37.702;2023-07-22T00:20:25;17.02;;;3.33;;
62740;SDS011;48790;55.656;37.702;2023-07-22T00:22:51;9.40;;;2.83;;
62740;SDS011;48790;55.656;37.702;2023-07-22T00:25:17;7.07;;;3.63;;
62740;SDS011;48790;55.656;37.702;2023-07-22T00:27:43;5.38;;;2.72;;
62740;SDS011;48790;55.656;37.702;2023-07-22T00:30:09;6.55;;;3.00;;
62740;SDS011;48790;55.656;37.702;2023-07-22T00:32:35;9.30;;;3.17;;
62740;SDS011;48790;55.656;37.702;2023-07-22T00:35:05;6.50;;;3.33;;
62740;SDS011;48790;55.656;37.702;2023-07-22T00:37:31;7.38;;;3.20;;
62740;SDS011;48790;55.656;37.702;2023-07-22T00:40:03;11.32;;;3.47;;
62740;SDS011;48790;55.656;37.702;2023-07-22T00:42:31;14.52;;;3.50;;
62740;SDS011;48790;55.656;37.702;2023-07-22T00:44:57;7.05;;;3.30;;
62740;SDS011;48790;55.656;37.702;2023-07-22T00:47:23;8.82;;;4.18;;
62740;SDS011;48790;55.656;37.702;2023-07-22T00:49:49;25.80;;;5.35;;
62740;SDS011;48790;55.656;37.702;2023-07-22T00:52:15;13.02;;;5.00;;
62740;SDS011;48790;55.656;37.702;2023-07-22T00:54:42;10.07;;;4.57;;
62740;SDS011;48790;55.656;37.702;2023-07-22T00:57:07;12.07;;;4.07;;
62740;SDS011;48790;55.656;37.702;2023-07-22T00:59:34;8.70;;;3.50;;
62740;SDS011;48790;55.656;37.702;2023-07-22T01:02:00;9.48;;;3.33;;
62740;SDS011;48790;55.656;37.702;2023-07-22T01:04:26;6.85;;;3.70;;
62740;SDS011;48790;55.656;37.702;2023-07-22T01:06:51;9.45;;;3.17;;
62740;SDS011;48790;55.656;37.702;2023-07-22T01:09:20;6.88;;;2.83;;
62740;SDS011;48790;55.656;37.702;2023-07-22T01:11:46;15.10;;;3.45;;
62740;SDS011;48790;55.656;37.702;2023-07-22T01:14:12;8.57;;;3.08;;
62740;SDS011;48790;55.656;37.702;2023-07-22T01:16:37;10.85;;;3.45;;
62740;SDS011;48790;55.656;37.702;2023-07-22T01:19:04;7.72;;;3.10;;
62740;SDS011;48790;55.656;37.702;2023-07-22T01:21:31;8.75;;;2.85;;
62740;SDS011;48790;55.656;37.702;2023-07-22T01:23:57;6.72;;;2.70;;
62740;SDS011;48790;55.656;37.702;2023-07-22T01:26:27;7.97;;;2.90;;
62740;SDS011;48790;55.656;37.702;2023-07-22T01:29:06;4.28;;;2.33;;
62740;SDS011;48790;55.656;37.702;2023-07-22T01:31:35;5.93;;;2.80;;
62740;SDS011;48790;55.656;37.702;2023-07-22T01:34:02;8.43;;;3.10;;
62740;SDS011;48790;55.656;37.702;2023-07-22T01:36:29;10.65;;;3.20;;
62740;SDS011;48790;55.656;37.702;2023-07-22T01:38:55;6.07;;;2.70;;
62740;SDS011;48790;55.656;37.702;2023-07-22T01:41:21;5.60;;;2.88;;
62740;SDS011;48790;55.656;37.702;2023-07-22T01:43:47;9.45;;;2.92;;
62740;SDS011;48790;55.656;37.702;2023-07-22T01:46:14;11.68;;;2.97;;
62740;SDS011;48790;55.656;37.702;2023-07-22T01:48:40;7.85;;;2.55;;
62740;SDS011;48790;55.656;37.702;2023-07-22T01:51:06;9.90;;;2.90;;
62740;SDS011;48790;55.656;37.702;2023-07-22T01:53:32;7.32;;;3.08;;
62740;SDS011;48790;55.656;37.702;2023-07-22T01:55:58;9.20;;;2.97;;
62740;SDS011;48790;55.656;37.702;2023-07-22T01:58:23;11.05;;;2.85;;
62740;SDS011;48790;55.656;37.702;2023-07-22T02:00:50;5.22;;;2.85;;
62740;SDS011;48790;55.656;37.702;2023-07-22T02:03:17;6.05;;;2.97;;
62740;SDS011;48790;55.656;37.702;2023-07-22T02:05:43;11.25;;;2.75;;
62740;SDS011;48790;55.656;37.702;2023-07-22T02:08:09;6.13;;;2.83;;
62740;SDS011;48790;55.656;37.702;2023-07-22T02:10:35;7.82;;;2.90;;
62740;SDS011;48790;55.656;37.702;2023-07-22T02:13:02;7.03;;;2.90;;
62740;SDS011;48790;55.656;37.702;2023-07-22T02:15:30;6.85;;;2.58;;
62740;SDS011;48790;55.656;37.702;2023-07-22T02:17:56;10.35;;;2.75;;
62740;SDS011;48790;55.656;37.702;2023-07-22T02:20:22;8.80;;;2.83;;
62740;SDS011;48790;55.656;37.702;2023-07-22T02:22:48;9.00;;;2.65;;
62740;SDS011;48790;55.656;37.702;2023-07-22T02:25:14;6.45;;;2.70;;
62740;SDS011;48790;55.656;37.702;2023-07-22T02:27:40;5.05;;;2.55;;
62740;SDS011;48790;55.656;37.702;2023-07-22T02:30:06;7.75;;;3.25;;
62740;SDS011;48790;55.656;37.702;2023-07-22T02:32:38;11.38;;;3.20;;
62740;SDS011;48790;55.656;37.702;2023-07-22T02:35:05;9.45;;;3.00;;
62740;SDS011;48790;55.656;37.702;2023-07-22T02:37:32;12.60;;;2.65;;
62740;SDS011;48790;55.656;37.702;2023-07-22T02:39:58;8.25;;;3.08;;
62740;SDS011;48790;55.656;37.702;2023-07-22T02:42:24;7.93;;;2.78;;
62740;SDS011;48790;55.656;37.702;2023-07-22T02:44:50;6.57;;;3.00;;
62740;SDS011;48790;55.656;37.702;2023-07-22T02:47:16;8.93;;;2.40;;
62740;SDS011;48790;55.656;37.702;2023-07-22T02:49:42;6.00;;;2.95;;
62740;SDS011;48790;55.656;37.702;2023-07-22T02:52:08;6.88;;;2.60;;
62740;SDS011;48790;55.656;37.702;2023-07-22T02:54:40;4.38;;;2.50;;
62740;SDS011;48790;55.656;37.702;2023-07-22T02:57:07;13.40;;;3.05;;
62740;SDS011;48790;55.656;37.702;2023-07-22T02:59:33;8.38;;;2.90;;
62740;SDS011;48790;55.656;37.702;2023-07-22T03:01:59;7.05;;;2.72;;
62740;SDS011;48790;55.656;37.702;2023-07-22T03:04:25;7.18;;;2.78;;
62740;SDS011;48790;55.656;37.702;2023-07-22T03:06:52;10.40;;;3.15;;
62740;SDS011;48790;55.656;37.702;2023-07-22T03:09:18;10.35;;;3.10;;
62740;SDS011;48790;55.656;37.702;2023-07-22T03:11:44;8.18;;;2.42;;
62740;SDS011;48790;55.656;37.702;2023-07-22T03:14:13;6.80;;;2.50;;
62740;SDS011;48790;55.656;37.702;2023-07-22T03:16:39;8.13;;;2.75;;
62740;SDS011;48790;55.656;37.702;2023-07-22T03:19:05;5.25;;;2.58;;
62740;SDS011;48790;55.656;37.702;2023-07-22T03:21:31;5.05;;;2.80;;
62740;SDS011;48790;55.656;37.702;2023-07-22T03:23:58;6.05;;;2.50;;
62740;SDS011;48790;55.656;37.702;2023-07-22T03:26:27;7.43;;;2.58;;
62740;SDS011;48790;55.656;37.702;2023-07-22T03:28:54;5.30;;;2.75;;
62740;SDS011;48790;55.656;37.702;2023-07-22T03:31:21;8.40;;;2.63;;
62740;SDS011;48790;55.656;37.702;2023-07-22T03:33:48;6.68;;;2.78;;
62740;SDS011;48790;55.656;37.702;2023-07-22T03:36:17;3.15;;;2.25;;
62740;SDS011;48790;55.656;37.702;2023-07-22T03:38:45;5.05;;;2.65;;
62740;SDS011;48790;55.656;37.702;2023-07-22T03:41:13;8.98;;;3.05;;
62740;SDS011;48790;55.656;37.702;2023-07-22T03:43:40;7.53;;;2.80;;
62740;SDS011;48790;55.656;37.702;2023-07-22T03:46:06;7.00;;;2.75;;
62740;SDS011;48790;55.656;37.702;2023-07-22T03:48:36;5.28;;;2.40;;
62740;SDS011;48790;55.656;37.702;2023-07-22T03:51:02;5.22;;;2.13;;
62740;SDS011;48790;55.656;37.702;2023-07-22T03:53:28;5.35;;;2.28;;
62740;SDS011;48790;55.656;37.702;2023-07-22T03:55:54;7.95;;;2.33;;
62740;SDS011;48790;55.656;37.702;2023-07-22T03:58:20;7.60;;;2.75;;
62740;SDS011;48790;55.656;37.702;2023-07-22T04:00:49;5.78;;;2.35;;
62740;SDS011;48790;55.656;37.702;2023-07-22T04:03:17;7.20;;;2.92;;
62740;SDS011;48790;55.656;37.702;2023-07-22T04:05:44;10.35;;;2.65;;
62740;SDS011;48790;55.656;37.702;2023-07-22T04:08:11;4.70;;;2.70;;
62740;SDS011;48790;55.656;37.702;2023-07-22T04:10:36;9.68;;;2.55;;
62740;SDS011;48790;55.656;37.702;2023-07-22T04:13:02;8.65;;;2.60;;
62740;SDS011;48790;55.656;37.702;2023-07-22T04:15:29;5.32;;;2.30;;
62740;SDS011;48790;55.656;37.702;2023-07-22T04:17:55;5.00;;;2.30;;
62740;SDS011;48790;55.656;37.702;2023-07-22T04:20:21;4.88;;;2.45;;
62740;SDS011;48790;55.656;37.702;2023-07-22T04:22:50;5.60;;;2.47;;
62740;SDS011;48790;55.656;37.702;2023-07-22T04:25:16;6.10;;;2.65;;
62740;SDS011;48790;55.656;37.702;2023-07-22T04:27:43;5.05;;;2.55;;
62740;SDS011;48790;55.656;37.702;2023-07-22T04:30:10;6.28;;;2.30;;
62740;SDS011;48790;55.656;37.702;2023-07-22T04:32:37;5.53;;;2.08;;
62740;SDS011;48790;55.656;37.702;2023-07-22T04:35:03;9.23;;;2.17;;
62740;SDS011;48790;55.656;37.702;2023-07-22T04:37:30;11.13;;;2.63;;
62740;SDS011;48790;55.656;37.702;2023-07-22T04:39:56;7.10;;;2.25;;
62740;SDS011;48790;55.656;37.702;2023-07-22T04:42:22;8.68;;;2.58;;
62740;SDS011;48790;55.656;37.702;2023-07-22T04:44:48;10.27;;;2.60;;
62740;SDS011;48790;55.656;37.702;2023-07-22T04:47:14;3.88;;;1.95;;
62740;SDS011;48790;55.656;37.702;2023-07-22T04:49:42;6.43;;;2.10;;
62740;SDS011;48790;55.656;37.702;2023-07-22T04:52:09;4.55;;;1.92;;
62740;SDS011;48790;55.656;37.702;2023-07-22T04:54:35;3.45;;;2.00;;
62740;SDS011;48790;55.656;37.702;2023-07-22T04:57:02;4.57;;;2.38;;
62740;SDS011;48790;55.656;37.702;2023-07-22T04:59:28;5.28;;;2.03;;
62740;SDS011;48790;55.656;37.702;2023-07-22T05:01:54;8.20;;;2.65;;
62740;SDS011;48790;55.656;37.702;2023-07-22T05:04:20;14.68;;;2.40;;
62740;SDS011;48790;55.656;37.702;2023-07-22T05:06:46;5.07;;;2.10;;
62740;SDS011;48790;55.656;37.702;2023-07-22T05:09:13;8.75;;;2.60;;
62740;SDS011;48790;55.656;37.702;2023-07-22T05:11:38;4.35;;;1.90;;
62740;SDS011;48790;55.656;37.702;2023-07-22T05:14:04;7.13;;;2.22;;
62740;SDS011;48790;55.656;37.702;2023-07-22T05:16:30;11.20;;;2.30;;
62740;SDS011;48790;55.656;37.702;2023-07-22T05:18:58;8.40;;;1.90;;
62740;SDS011;48790;55.656;37.702;2023-07-22T05:21:23;8.75;;;2.13;;
62740;SDS011;48790;55.656;37.702;2023-07-22T05:23:49;10.27;;;2.10;;
62740;SDS011;48790;55.656;37.702;2023-07-22T05:26:17;10.20;;;2.53;;
62740;SDS011;48790;55.656;37.702;2023-07-22T05:28:44;7.68;;;2.15;;
62740;SDS011;48790;55.656;37.702;2023-07-22T05:31:09;9.50;;;2.03;;
62740;SDS011;48790;55.656;37.702;2023-07-22T05:33:35;6.72;;;2.15;;
62740;SDS011;48790;55.656;37.702;2023-07-22T05:36:02;8.50;;;2.00;;
62740;SDS011;48790;55.656;37.702;2023-07-22T05:38:28;7.10;;;1.90;;
62740;SDS011;48790;55.656;37.702;2023-07-22T05:40:57;8.43;;;1.90;;
62740;SDS011;48790;55.656;37.702;2023-07-22T05:43:23;9.90;;;1.70;;
62740;SDS011;48790;55.656;37.702;2023-07-22T05:45:49;4.65;;;1.75;;
62740;SDS011;48790;55.656;37.702;2023-07-22T05:48:15;4.57;;;1.80;;
62740;SDS011;48790;55.656;37.702;2023-07-22T05:50:41;5.88;;;1.80;;
62740;SDS011;48790;55.656;37.702;2023-07-22T05:53:07;6.35;;;1.80;;
62740;SDS011;48790;55.656;37.702;2023-07-22T05:55:33;4.07;;;1.58;;
62740;SDS011;48790;55.656;37.702;2023-07-22T05:57:59;8.68;;;1.92;;
62740;SDS011;48790;55.656;37.702;2023-07-22T06:00:31;8.45;;;1.95;;
62740;SDS011;48790;55.656;37.702;2023-07-22T06:02:59;8.68;;;1.80;;
62740;SDS011;48790;55.656;37.702;2023-07-22T06:05:26;3.97;;;1.60;;
62740;SDS011;48790;55.656;37.702;2023-07-22T06:07:52;6.78;;;2.10;;
62740;SDS011;48790;55.656;37.702;2023-07-22T06:10:19;7.18;;;1.98;;
62740;SDS011;48790;55.656;37.702;2023-07-22T06:12:45;5.25;;;1.70;;
62740;SDS011;48790;55.656;37.702;2023-07-22T06:15:12;5.45;;;1.50;;
62740;SDS011;48790;55.656;37.702;2023-07-22T06:17:39;6.63;;;1.70;;
62740;SDS011;48790;55.656;37.702;2023-07-22T06:20:06;8.10;;;1.65;;
62740;SDS011;48790;55.656;37.702;2023-07-22T06:22:33;4.38;;;1.63;;
62740;SDS011;48790;55.656;37.702;2023-07-22T06:25:00;5.88;;;1.88;;
62740;SDS011;48790;55.656;37.702;2023-07-22T06:27:25;4.47;;;1.70;;
62740;SDS011;48790;55.656;37.702;2023-07-22T06:29:51;5.47;;;1.70;;
62740;SDS011;48790;55.656;37.702;2023-07-22T06:32:20;7.72;;;1.65;;
62740;SDS011;48790;55.656;37.702;2023-07-22T06:34:45;5.65;;;2.22;;
62740;SDS011;48790;55.656;37.702;2023-07-22T06:37:11;7.03;;;1.77;;
62740;SDS011;48790;55.656;37.702;2023-07-22T06:39:38;3.33;;;1.58;;
62740;SDS011;48790;55.656;37.702;2023-07-22T06:42:05;4.95;;;1.60;;
62740;SDS011;48790;55.656;37.702;2023-07-22T06:44:30;4.93;;;1.90;;
62740;SDS011;48790;55.656;37.702;2023-07-22T06:46:56;2.97;;;1.70;;
62740;SDS011;48790;55.656;37.702;2023-07-22T06:49:22;4.55;;;1.60;;
62740;SDS011;48790;55.656;37.702;2023-07-22T06:51:51;5.85;;;1.60;;
62740;SDS011;48790;55.656;37.702;2023-07-22T06:54:17;8.75;;;1.92;;
62740;SDS011;48790;55.656;37.702;2023-07-22T06:56:43;5.70;;;1.83;;
62740;SDS011;48790;55.656;37.702;2023-07-22T06:59:08;7.38;;;1.77;;
62740;SDS011;48790;55.656;37.702;2023-07-22T07:01:34;4.20;;;1.98;;
62740;SDS011;48790;55.656;37.702;2023-07-22T07:04:00;10.05;;;1.83;;
62740;SDS011;48790;55.656;37.702;2023-07-22T07:06:25;3.90;;;1.50;;
62740;SDS011;48790;55.656;37.702;2023-07-22T07:08:51;8.98;;;2.10;;
62740;SDS011;48790;55.656;37.702;2023-07-22T07:11:17;3.20;;;1.80;;
62740;SDS011;48790;55.656;37.702;2023-07-22T07:13:44;4.20;;;1.45;;
62740;SDS011;48790;55.656;37.702;2023-07-22T07:16:23;6.43;;;1.70;;
62740;SDS011;48790;55.656;37.702;2023-07-22T07:18:52;5.40;;;1.45;;
62740;SDS011;48790;55.656;37.702;2023-07-22T07:21:18;6.93;;;1.70;;
62740;SDS011;48790;55.656;37.702;2023-07-22T07:23:44;7.45;;;1.70;;
62740;SDS011;48790;55.656;37.702;2023-07-22T07:26:10;16.20;;;1.75;;
62740;SDS011;48790;55.656;37.702;2023-07-22T07:28:37;4.75;;;1.60;;
62740;SDS011;48790;55.656;37.702;2023-07-22T07:31:03;5.47;;;1.27;;
62740;SDS011;48790;55.656;37.702;2023-07-22T07:33:28;3.95;;;1.55;;
62740;SDS011;48790;55.656;37.702;2023-07-22T07:35:54;7.22;;;1.50;;
62740;SDS011;48790;55.656;37.702;2023-07-22T07:38:20;4.07;;;2.20;;
62740;SDS011;48790;55.656;37.702;2023-07-22T07:40:51;3.60;;;2.20;;
62740;SDS011;48790;55.656;37.702;2023-07-22T07:43:17;5.32;;;1.85;;
62740;SDS011;48790;55.656;37.702;2023-07-22T07:45:43;4.88;;;1.30;;
62740;SDS011;48790;55.656;37.702;2023-07-22T07:48:08;3.80;;;1.50;;
62740;SDS011;48790;55.656;37.702;2023-07-22T07:50:34;4.78;;;1.67;;
62740;SDS011;48790;55.656;37.702;2023-07-22T07:53:03;6.03;;;1.40;;
62740;SDS011;48790;55.656;37.702;2023-07-22T07:55:28;5.18;;;1.38;;
62740;SDS011;48790;55.656;37.702;2023-07-22T07:57:54;10.25;;;1.63;;
62740;SDS011;48790;55.656;37.702;2023-07-22T08:00:21;3.90;;;1.70;;
62740;SDS011;48790;55.656;37.702;2023-07-22T08:02:49;9.25;;;1.80;;
62740;SDS011;48790;55.656;37.702;2023-07-22T08:05:16;3.67;;;1.50;;
62740;SDS011;48790;55.656;37.702;2023-07-22T08:07:42;3.63;;;1.40;;
62740;SDS011;48790;55.656;37.702;2023-07-22T08:10:18;4.55;;;1.70;;
62740;SDS011;48790;55.656;37.702;2023-07-22T08:12:52;2.80;;;1.30;;
62740;SDS011;48790;55.656;37.702;2023-07-22T08:15:18;2.97;;;1.35;;
62740;SDS011;48790;55.656;37.702;2023-07-22T08:17:43;5.90;;;1.60;;
62740;SDS011;48790;55.656;37.702;2023-07-22T08:20:10;3.92;;;1.67;;
62740;SDS011;48790;55.656;37.702;2023-07-22T08:22:36;3.80;;;1.70;;
62740;SDS011;48790;55.656;37.702;2023-07-22T08:25:21;2.65;;;1.80;;
62740;SDS011;48790;55.656;37.702;2023-07-22T08:27:47;7.85;;;2.10;;
62740;SDS011;48790;55.656;37.702;2023-07-22T08:30:13;5.88;;;2.33;;
62740;SDS011;48790;55.656;37.702;2023-07-22T08:32:38;9.65;;;2.00;;
62740;SDS011;48790;55.656;37.702;2023-07-22T08:35:05;10.77;;;3.40;;
62740;SDS011;48790;55.656;37.702;2023-07-22T08:37:32;10.50;;;2.30;;
62740;SDS011;48790;55.656;37.702;2023-07-22T08:39:59;4.28;;;1.55;;
62740;SDS011;48790;55.656;37.702;2023-07-22T08:42:26;11.43;;;2.25;;
62740;SDS011;48790;55.656;37.702;2023-07-22T08:44:56;7.05;;;2.45;;
62740;SDS011;48790;55.656;37.702;2023-07-22T08:47:24;5.72;;;2.13;;
62740;SDS011;48790;55.656;37.702;2023-07-22T08:49:50;10.95;;;3.30;;
62740;SDS011;48790;55.656;37.702;2023-07-22T08:52:19;9.35;;;3.35;;
62740;SDS011;48790;55.656;37.702;2023-07-22T08:54:47;6.38;;;2.72;;
62740;SDS011;48790;55.656;37.702;2023-07-22T08:57:14;2.17;;;1.60;;
62740;SDS011;48790;55.656;37.702;2023-07-22T08:59:41;4.38;;;1.73;;
62740;SDS011;48790;55.656;37.702;2023-07-22T09:02:12;5.57;;;1.30;;
62740;SDS011;48790;55.656;37.702;2023-07-22T09:04:39;11.57;;;1.60;;
62740;SDS011;48790;55.656;37.702;2023-07-22T09:07:10;5.30;;;1.50;;
62740;SDS011;48790;55.656;37.702;2023-07-22T09:09:38;2.13;;;1.30;;
62740;SDS011;48790;55.656;37.702;2023-07-22T09:12:05;5.55;;;1.65;;
62740;SDS011;48790;55.656;37.702;2023-07-22T09:14:31;9.00;;;1.50;;
62740;SDS011;48790;55.656;37.702;2023-07-22T09:16:59;1.48;;;1.02;;
62740;SDS011;48790;55.656;37.702;2023-07-22T09:19:25;12.95;;;1.83;;
62740;SDS011;48790;55.656;37.702;2023-07-22T09:21:50;7.35;;;1.80;;
62740;SDS011;48790;55.656;37.702;2023-07-22T09:24:20;2.20;;;1.00;;
62740;SDS011;48790;55.656;37.702;2023-07-22T09:26:47;8.60;;;1.40;;
62740;SDS011;48790;55.656;37.702;2023-07-22T09:29:12;3.95;;;2.10;;
62740;SDS011;48790;55.656;37.702;2023-07-22T09:31:51;7.05;;;2.17;;
62740;SDS011;48790;55.656;37.702;2023-07-22T09:34:17;6.28;;;2.30;;
62740;SDS011;48790;55.656;37.702;2023-07-22T09:39:15;3.00;;;1.70;;
62740;SDS011;48790;55.656;37.702;2023-07-22T09:41:41;4.78;;;1.50;;
62740;SDS011;48790;55.656;37.702;2023-07-22T09:44:11;6.13;;;2.72;;
62740;SDS011;48790;55.656;37.702;2023-07-22T09:46:40;6.90;;;2.10;;
62740;SDS011;48790;55.656;37.702;2023-07-22T09:49:09;2.42;;;1.85;;
62740;SDS011;48790;55.656;37.702;2023-07-22T09:51:35;10.55;;;2.25;;
62740;SDS011;48790;55.656;37.702;2023-07-22T09:54:02;2.42;;;1.40;;
62740;SDS011;48790;55.656;37.702;2023-07-22T09:56:29;4.50;;;2.40;;
62740;SDS011;48790;55.656;37.702;2023-07-22T09:58:57;3.47;;;2.13;;
62740;SDS011;48790;55.656;37.702;2023-07-22T10:01:24;6.30;;;2.67;;
62740;SDS011;48790;55.656;37.702;2023-07-22T10:03:54;7.53;;;3.00;;
62740;SDS011;48790;55.656;37.702;2023-07-22T10:06:23;8.25;;;2.40;;
62740;SDS011;48790;55.656;37.702;2023-07-22T10:08:49;6.30;;;2.88;;
62740;SDS011;48790;55.656;37.702;2023-07-22T10:11:16;2.60;;;1.40;;
62740;SDS011;48790;55.656;37.702;2023-07-22T10:13:41;7.57;;;2.70;;
62740;SDS011;48790;55.656;37.702;2023-07-22T10:16:07;8.18;;;2.30;;
62740;SDS011;48790;55.656;37.702;2023-07-22T10:18:34;6.47;;;1.58;;
62740;SDS011;48790;55.656;37.702;2023-07-22T10:21:00;3.63;;;1.90;;
62740;SDS011;48790;55.656;37.702;2023-07-22T10:23:26;7.65;;;1.65;;
62740;SDS011;48790;55.656;37.702;2023-07-22T10:25:53;8.02;;;1.67;;
62740;SDS011;48790;55.656;37.702;2023-07-22T10:28:20;6.30;;;1.50;;
62740;SDS011;48790;55.656;37.702;2023-07-22T10:30:46;7.45;;;1.50;;
62740;SDS011;48790;55.656;37.702;2023-07-22T10:33:12;4.18;;;1.42;;
62740;SDS011;48790;55.656;37.702;2023-07-22T10:35:42;6.35;;;1.58;;
62740;SDS011;48790;55.656;37.702;2023-07-22T10:38:10;6.68;;;1.77;;
62740;SDS011;48790;55.656;37.702;2023-07-22T10:40:52;8.68;;;1.77;;
62740;SDS011;48790;55.656;37.702;2023-07-22T10:43:27;1.48;;;1.30;;
62740;SDS011;48790;55.656;37.702;2023-07-22T10:45:54;11.27;;;1.95;;
62740;SDS011;48790;55.656;37.702;2023-07-22T10:48:22;6.22;;;1.55;;
62740;SDS011;48790;55.656;37.702;2023-07-22T10:50:49;4.32;;;1.52;;
62740;SDS011;48790;55.656;37.702;2023-07-22T10:56:10;6.25;;;1.60;;
62740;SDS011;48790;55.656;37.702;2023-07-22T11:06:39;3.42;;;1.40;;
62740;SDS011;48790;55.656;37.702;2023-07-22T11:09:05;3.78;;;1.50;;
62740;SDS011;48790;55.656;37.702;2023-07-22T11:11:44;6.15;;;1.73;;
62740;SDS011;48790;55.656;37.702;2023-07-22T11:14:14;7.18;;;3.60;;
62740;SDS011;48790;55.656;37.702;2023-07-22T11:16:46;11.73;;;4.20;;
62740;SDS011;48790;55.656;37.702;2023-07-22T11:19:13;14.68;;;4.68;;
62740;SDS011;48790;55.656;37.702;2023-07-22T11:21:41;6.07;;;3.58;;
62740;SDS011;48790;55.656;37.702;2023-07-22T11:24:07;9.45;;;2.40;;
62740;SDS011;48790;55.656;37.702;2023-07-22T11:26:33;4.47;;;1.80;;
62740;SDS011;48790;55.656;37.702;2023-07-22T11:29:00;3.35;;;1.85;;
62740;SDS011;48790;55.656;37.702;2023-07-22T11:31:42;3.75;;;1.60;;
62740;SDS011;48790;55.656;37.702;2023-07-22T11:34:10;4.93;;;2.03;;
62740;SDS011;48790;55.656;37.702;2023-07-22T11:36:36;2.95;;;1.80;;
62740;SDS011;48790;55.656;37.702;2023-07-22T11:41:29;7.18;;;2.90;;
62740;SDS011;48790;55.656;37.702;2023-07-22T11:43:59;6.88;;;4.03;;
62740;SDS011;48790;55.656;37.702;2023-07-22T11:46:26;5.78;;;3.00;;
62740;SDS011;48790;55.656;37.702;2023-07-22T11:48:53;5.07;;;2.30;;
62740;SDS011;48790;55.656;37.702;2023-07-22T11:51:20;2.88;;;1.85;;
62740;SDS011;48790;55.656;37.702;2023-07-22T11:53:46;3.22;;;1.67;;
62740;SDS011;48790;55.656;37.702;2023-07-22T11:56:17;3.25;;;2.00;;
62740;SDS011;48790;55.656;37.702;2023-07-22T11:58:42;6.43;;;1.40;;
62740;SDS011;48790;55.656;37.702;2023-07-22T12:01:11;10.55;;;1.90;;
62740;SDS011;48790;55.656;37.702;2023-07-22T12:03:37;5.30;;;1.60;;
62740;SDS011;48790;55.656;37.702;2023-07-22T12:06:03;2.45;;;1.30;;
62740;SDS011;48790;55.656;37.702;2023-07-22T12:08:29;4.95;;;1.52;;
62740;SDS011;48790;55.656;37.702;2023-07-22T12:10:56;4.35;;;2.03;;
62740;SDS011;48790;55.656;37.702;2023-07-22T12:13:21;4.75;;;1.52;;
62740;SDS011;48790;55.656;37.702;2023-07-22T12:16:00;3.88;;;1.60;;
62740;SDS011;48790;55.656;37.702;2023-07-22T12:18:26;3.35;;;1.10;;
62740;SDS011;48790;55.656;37.702;2023-07-22T12:20:52;5.57;;;1.40;;
62740;SDS011;48790;55.656;37.702;2023-07-22T12:23:18;4.75;;;1.25;;
62740;SDS011;48790;55.656;37.702;2023-07-22T12:25:44;4.03;;;1.20;;
62740;SDS011;48790;55.656;37.702;2023-07-22T12:28:09;7.78;;;1.50;;
62740;SDS011;48790;55.656;37.702;2023-07-22T12:30:36;4.50;;;1.58;;
62740;SDS011;48790;55.656;37.702;2023-07-22T12:33:02;5.95;;;1.75;;
62740;SDS011;48790;55.656;37.702;2023-07-22T12:35:28;3.33;;;1.38;;
62740;SDS011;48790;55.656;37.702;2023-07-22T12:37:53;3.03;;;1.40;;
62740;SDS011;48790;55.656;37.702;2023-07-22T12:40:20;4.82;;;1.70;;
62740;SDS011;48790;55.656;37.702;2023-07-22T12:42:46;4.75;;;1.60;;
62740;SDS011;48790;55.656;37.702;2023-07-22T12:45:13;3.08;;;1.50;;
62740;SDS011;48790;55.656;37.702;2023-07-22T12:47:39;3.38;;;2.00;;
62740;SDS011;48790;55.656;37.702;2023-07-22T12:50:07;7.18;;;2.40;;
62740;SDS011;48790;55.656;37.702;2023-07-22T12:52:34;4.40;;;1.65;;
62740;SDS011;48790;55.656;37.702;2023-07-22T12:55:00;5.68;;;1.35;;
62740;SDS011;48790;55.656;37.702;2023-07-22T12:57:26;3.28;;;1.50;;
62740;SDS011;48790;55.656;37.702;2023-07-22T12:59:51;5.00;;;1.80;;
62740;SDS011;48790;55.656;37.702;2023-07-22T13:02:18;4.95;;;1.70;;
62740;SDS011;48790;55.656;37.702;2023-07-22T13:04:44;2.25;;;1.40;;
62740;SDS011;48790;55.656;37.702;2023-07-22T13:07:10;8.90;;;1.50;;
62740;SDS011;48790;55.656;37.702;2023-07-22T13:09:36;6.07;;;1.52;;
62740;SDS011;48790;55.656;37.702;2023-07-22T13:12:02;3.63;;;1.30;;
62740;SDS011;48790;55.656;37.702;2023-07-22T13:14:28;8.32;;;1.88;;
62740;SDS011;48790;55.656;37.702;2023-07-22T13:16:54;5.03;;;1.60;;
62740;SDS011;48790;55.656;37.702;2023-07-22T13:19:20;8.52;;;1.60;;
62740;SDS011;48790;55.656;37.702;2023-07-22T13:21:45;2.33;;;1.33;;
62740;SDS011;48790;55.656;37.702;2023-07-22T13:24:12;3.65;;;1.60;;
62740;SDS011;48790;55.656;37.702;2023-07-22T13:26:38;7.57;;;1.77;;
62740;SDS011;48790;55.656;37.702;2023-07-22T13:29:03;2.13;;;1.58;;
62740;SDS011;48790;55.656;37.702;2023-07-22T13:31:29;3.35;;;1.83;;
62740;SDS011;48790;55.656;37.702;2023-07-22T13:33:55;10.93;;;2.00;;
62740;SDS011;48790;55.656;37.702;2023-07-22T13:36:20;2.58;;;1.40;;
62740;SDS011;48790;55.656;37.702;2023-07-22T13:38:46;4.28;;;1.67;;
62740;SDS011;48790;55.656;37.702;2023-07-22T13:41:12;6.90;;;2.35;;
62740;SDS011;48790;55.656;37.702;2023-07-22T13:43:38;4.15;;;1.80;;
62740;SDS011;48790;55.656;37.702;2023-07-22T13:46:06;5.00;;;1.80;;
62740;SDS011;48790;55.656;37.702;2023-07-22T13:48:32;6.13;;;3.22;;
62740;SDS011;48790;55.656;37.702;2023-07-22T13:50:58;8.75;;;5.32;;
62740;SDS011;48790;55.656;37.702;2023-07-22T13:53:23;7.80;;;2.88;;
62740;SDS011;48790;55.656;37.702;2023-07-22T13:55:49;10.05;;;3.38;;
62740;SDS011;48790;55.656;37.702;2023-07-22T13:58:15;8.35;;;3.17;;
62740;SDS011;48790;55.656;37.702;2023-07-22T14:00:40;7.47;;;3.97;;
62740;SDS011;48790;55.656;37.702;2023-07-22T14:03:06;13.82;;;6.57;;
62740;SDS011;48790;55.656;37.702;2023-07-22T14:05:32;12.05;;;6.00;;
62740;SDS011;48790;55.656;37.702;2023-07-22T14:07:58;7.80;;;3.05;;
62740;SDS011;48790;55.656;37.702;2023-07-22T14:10:24;22.63;;;3.30;;
62740;SDS011;48790;55.656;37.702;2023-07-22T14:12:50;9.23;;;4.82;;
62740;SDS011;48790;55.656;37.702;2023-07-22T14:15:16;3.10;;;1.98;;
62740;SDS011;48790;55.656;37.702;2023-07-22T14:17:42;4.60;;;1.88;;
62740;SDS011;48790;55.656;37.702;2023-07-22T14:20:09;7.32;;;3.30;;
62740;SDS011;48790;55.656;37.702;2023-07-22T14:22:37;5.38;;;2.75;;
62740;SDS011;48790;55.656;37.702;2023-07-22T14:25:04;7.00;;;2.05;;
62740;SDS011;48790;55.656;37.702;2023-07-22T14:27:30;9.82;;;2.97;;
62740;SDS011;48790;55.656;37.702;2023-07-22T14:29:56;4.22;;;2.13;;
62740;SDS011;48790;55.656;37.702;2023-07-22T14:32:21;8.65;;;2.33;;
62740;SDS011;48790;55.656;37.702;2023-07-22T14:34:49;3.80;;;2.38;;
62740;SDS011;48790;55.656;37.702;2023-07-22T14:37:15;4.43;;;2.30;;
62740;SDS011;48790;55.656;37.702;2023-07-22T14:39:41;8.02;;;2.55;;
62740;SDS011;48790;55.656;37.702;2023-07-22T14:42:09;10.88;;;2.20;;
62740;SDS011;48790;55.656;37.702;2023-07-22T14:44:35;5.03;;;2.17;;
62740;SDS011;48790;55.656;37.702;2023-07-22T14:47:01;6.03;;;1.92;;